sensor_id;sensor_type;location;lat;lon;timestamp;temperature;humidity
24664;DHT22;12791;50.992;13.788;2022-10-18T03:02:24;13.80;99.90
24664;DHT22;12791;50.992;13.788;2022-10-18T03:04:51;13.80;99.90
24664;DHT22;12791;50.992;13.788;2022-10-18T03:07:17;13.80;99.90
24664;DHT22;12791;50.992;13.788;2022-10-18T03:09:44;13.80;99.90
24664;DHT22;12791;50.992;13.788;2022-10-18T03:12:11;13.70;99.90
24664;DHT22;12791;50.992;13.788;2022-10-18T03:14:37;13.80;99.90
24664;DHT22;12791;50.992;13.788;2022-10-18T03:17:04;13.70;99.90
24664;DHT22;12791;50.992;13.788;2022-10-18T03:19:32;13.70;99.90
24664;DHT22;12791;50.992;13.788;2022-10-18T03:21:59;13.70;99.90
24664;DHT22;12791;50.992;13.788;2022-10-18T03:24:26;13.70;99.90
24664;DHT22;12791;50.992;13.788;2022-10-18T03:26:53;13.70;99.90
24664;DHT22;12791;50.992;13.788;2022-10-18T03:29:19;13.70;99.90
24664;DHT22;12791;50.992;13.788;2022-10-18T03:31:46;13.70;99.90
24664;DHT22;12791;50.992;13.788;2022-10-18T03:34:13;13.70;99.90
24664;DHT22;12791;50.992;13.788;2022-10-18T03:36:41;13.70;99.90
24664;DHT22;12791;50.992;13.788;2022-10-18T03:39:09;13.70;99.90
24664;DHT22;12791;50.992;13.788;2022-10-18T03:41:36;13.60;99.90
24664;DHT22;12791;50.992;13.788;2022-10-18T03:44:03;13.60;99.90
24664;DHT22;12791;50.992;13.788;2022-10-18T03:46:29;13.60;99.90
24664;DHT22;12791;50.992;13.788;2022-10-18T03:48:56;13.60;99.90
24664;DHT22;12791;50.992;13.788;2022-10-18T03:51:23;13.60;99.90
24664;DHT22;12791;50.992;13.788;2022-10-18T03:53:51;13.60;99.90
24664;DHT22;12791;50.992;13.788;2022-10-18T03:56:17;13.60;99.90
24664;DHT22;12791;50.992;13.788;2022-10-18T03:58:44;13.60;99.90
24664;DHT22;12791;50.992;13.788;2022-10-18T04:01:11;13.60;99.90
24664;DHT22;12791;50.992;13.788;2022-10-18T04:03:38;13.50;99.90
24664;DHT22;12791;50.992;13.788;2022-10-18T04:06:04;13.50;99.90
24664;DHT22;12791;50.992;13.788;2022-10-18T04:08:32;13.50;99.90
24664;DHT22;12791;50.992;13.788;2022-10-18T04:11:04;13.50;99.90
24664;DHT22;12791;50.992;13.788;2022-10-18T04:13:32;13.50;99.90
24664;DHT22;12791;50.992;13.788;2022-10-18T04:15:59;13.50;99.90
24664;DHT22;12791;50.992;13.788;2022-10-18T04:18:26;13.50;99.90
24664;DHT22;12791;50.992;13.788;2022-10-18T04:20:53;13.60;99.90
24664;DHT22;12791;50.992;13.788;2022-10-18T04:23:19;13.60;99.90
24664;DHT22;12791;50.992;13.788;2022-10-18T04:25:46;13.60;99.90
24664;DHT22;12791;50.992;13.788;2022-10-18T04:28:14;13.60;99.90
24664;DHT22;12791;50.992;13.788;2022-10-18T04:30:41;13.60;99.90
24664;DHT22;12791;50.992;13.788;2022-10-18T04:33:08;13.60;99.90
24664;DHT22;12791;50.992;13.788;2022-10-18T04:35:34;13.70;99.90
24664;DHT22;12791;50.992;13.788;2022-10-18T04:38:01;13.70;99.90
24664;DHT22;12791;50.992;13.788;2022-10-18T04:40:28;13.70;99.90
24664;DHT22;12791;50.992;13.788;2022-10-18T04:42:55;13.70;99.90
24664;DHT22;12791;50.992;13.788;2022-10-18T04:45:23;13.80;99.90
24664;DHT22;12791;50.992;13.788;2022-10-18T04:47:49;13.80;99.90
24664;DHT22;12791;50.992;13.788;2022-10-18T04:50:16;13.80;99.90
24664;DHT22;12791;50.992;13.788;2022-10-18T04:52:43;13.90;99.90
24664;DHT22;12791;50.992;13.788;2022-10-18T04:55:10;13.90;99.90
24664;DHT22;12791;50.992;13.788;2022-10-18T04:57:36;13.90;99.90
24664;DHT22;12791;50.992;13.788;2022-10-18T05:00:04;14.00;99.90
24664;DHT22;12791;50.992;13.788;2022-10-18T05:02:32;14.00;99.90
24664;DHT22;12791;50.992;13.788;2022-10-18T05:04:59;14.00;99.90
24664;DHT22;12791;50.992;13.788;2022-10-18T05:07:25;14.00;99.90
24664;DHT22;12791;50.992;13.788;2022-10-18T05:09:52;14.00;99.90
24664;DHT22;12791;50.992;13.788;2022-10-18T05:12:19;14.00;99.90
24664;DHT22;12791;50.992;13.788;2022-10-18T05:14:46;14.00;99.90
24664;DHT22;12791;50.992;13.788;2022-10-18T05:17:13;14.00;99.90
24664;DHT22;12791;50.992;13.788;2022-10-18T05:19:41;14.10;99.90
24664;DHT22;12791;50.992;13.788;2022-10-18T05:22:08;14.00;99.90
24664;DHT22;12791;50.992;13.788;2022-10-18T05:24:34;14.00;99.90
24664;DHT22;12791;50.992;13.788;2022-10-18T05:27:01;14.00;99.90
24664;DHT22;12791;50.992;13.788;2022-10-18T05:29:28;14.10;99.90
24664;DHT22;12791;50.992;13.788;2022-10-18T05:31:54;14.10;99.90
24664;DHT22;12791;50.992;13.788;2022-10-18T05:34:21;14.10;99.90
24664;DHT22;12791;50.992;13.788;2022-10-18T05:36:50;14.10;99.90
24664;DHT22;12791;50.992;13.788;2022-10-18T05:39:17;14.10;99.90
24664;DHT22;12791;50.992;13.788;2022-10-18T05:41:43;14.10;99.90
24664;DHT22;12791;50.992;13.788;2022-10-18T05:44:10;14.10;99.90
24664;DHT22;12791;50.992;13.788;2022-10-18T05:46:37;14.10;99.90
24664;DHT22;12791;50.992;13.788;2022-10-18T05:49:03;14.10;99.90
24664;DHT22;12791;50.992;13.788;2022-10-18T05:51:30;14.10;99.90
24664;DHT22;12791;50.992;13.788;2022-10-18T05:53:58;14.10;99.90
24664;DHT22;12791;50.992;13.788;2022-10-18T05:56:25;14.10;99.90
24664;DHT22;12791;50.992;13.788;2022-10-18T05:58:52;14.20;99.90
24664;DHT22;12791;50.992;13.788;2022-10-18T06:01:19;14.20;99.90
24664;DHT22;12791;50.992;13.788;2022-10-18T06:03:46;14.20;99.90
24664;DHT22;12791;50.992;13.788;2022-10-18T06:06:13;14.20;99.90
24664;DHT22;12791;50.992;13.788;2022-10-18T06:08:41;14.20;99.90
24664;DHT22;12791;50.992;13.788;2022-10-18T06:11:11;14.20;99.90
24664;DHT22;12791;50.992;13.788;2022-10-18T06:13:39;14.10;99.90
24664;DHT22;12791;50.992;13.788;2022-10-18T06:16:07;14.10;99.90
24664;DHT22;12791;50.992;13.788;2022-10-18T06:18:34;14.00;99.90
24664;DHT22;12791;50.992;13.788;2022-10-18T06:21:00;14.10;99.90
24664;DHT22;12791;50.992;13.788;2022-10-18T06:23:27;14.10;99.90
24664;DHT22;12791;50.992;13.788;2022-10-18T06:25:57;14.00;99.90
24664;DHT22;12791;50.992;13.788;2022-10-18T06:28:25;14.10;99.90
24664;DHT22;12791;50.992;13.788;2022-10-18T06:30:52;14.10;99.90
24664;DHT22;12791;50.992;13.788;2022-10-18T06:33:19;14.10;99.90
24664;DHT22;12791;50.992;13.788;2022-10-18T06:35:54;14.20;99.90
24664;DHT22;12791;50.992;13.788;2022-10-18T06:38:20;14.20;99.90
24664;DHT22;12791;50.992;13.788;2022-10-18T06:40:48;14.20;99.90
24664;DHT22;12791;50.992;13.788;2022-10-18T06:43:14;14.20;99.90
24664;DHT22;12791;50.992;13.788;2022-10-18T06:45:42;14.20;99.90
24664;DHT22;12791;50.992;13.788;2022-10-18T06:48:09;14.10;99.90
24664;DHT22;12791;50.992;13.788;2022-10-18T06:50:36;14.10;99.90
24664;DHT22;12791;50.992;13.788;2022-10-18T06:53:03;14.10;99.90
24664;DHT22;12791;50.992;13.788;2022-10-18T06:55:31;14.00;99.90
24664;DHT22;12791;50.992;13.788;2022-10-18T06:57:57;14.10;99.90
24664;DHT22;12791;50.992;13.788;2022-10-18T07:00:24;14.10;99.90
24664;DHT22;12791;50.992;13.788;2022-10-18T07:02:52;14.10;99.90
24664;DHT22;12791;50.992;13.788;2022-10-18T07:05:19;14.30;99.90
24664;DHT22;12791;50.992;13.788;2022-10-18T07:07:45;14.30;99.90
24664;DHT22;12791;50.992;13.788;2022-10-18T07:10:12;14.30;99.90
24664;DHT22;12791;50.992;13.788;2022-10-18T07:12:39;14.30;99.90
24664;DHT22;12791;50.992;13.788;2022-10-18T07:15:06;14.30;99.90
24664;DHT22;12791;50.992;13.788;2022-10-18T07:17:33;14.30;99.90
24664;DHT22;12791;50.992;13.788;2022-10-18T07:20:01;14.30;99.90
24664;DHT22;12791;50.992;13.788;2022-10-18T07:22:29;14.30;99.90
24664;DHT22;12791;50.992;13.788;2022-10-18T07:24:55;14.30;99.90
24664;DHT22;12791;50.992;13.788;2022-10-18T07:27:22;14.40;99.90
24664;DHT22;12791;50.992;13.788;2022-10-18T07:29:49;14.30;99.90
24664;DHT22;12791;50.992;13.788;2022-10-18T07:32:15;14.40;99.90
24664;DHT22;12791;50.992;13.788;2022-10-18T07:34:42;14.40;99.90
24664;DHT22;12791;50.992;13.788;2022-10-18T07:37:10;14.50;99.90
24664;DHT22;12791;50.992;13.788;2022-10-18T07:39:37;14.50;99.90
24664;DHT22;12791;50.992;13.788;2022-10-18T07:42:03;14.50;99.90
24664;DHT22;12791;50.992;13.788;2022-10-18T07:44:30;14.50;99.90
24664;DHT22;12791;50.992;13.788;2022-10-18T07:46:57;14.50;99.90
24664;DHT22;12791;50.992;13.788;2022-10-18T07:49:23;14.50;99.90
24664;DHT22;12791;50.992;13.788;2022-10-18T07:51:50;14.50;99.90
24664;DHT22;12791;50.992;13.788;2022-10-18T07:54:18;14.50;99.90
24664;DHT22;12791;50.992;13.788;2022-10-18T07:56:46;14.50;99.90
24664;DHT22;12791;50.992;13.788;2022-10-18T07:59:13;14.50;99.90
24664;DHT22;12791;50.992;13.788;2022-10-18T08:01:40;14.50;99.90
24664;DHT22;12791;50.992;13.788;2022-10-18T08:04:06;14.50;99.90
24664;DHT22;12791;50.992;13.788;2022-10-18T08:06:33;14.50;99.90
24664;DHT22;12791;50.992;13.788;2022-10-18T08:09:00;14.60;99.90
24664;DHT22;12791;50.992;13.788;2022-10-18T08:11:28;14.60;99.90
24664;DHT22;12791;50.992;13.788;2022-10-18T08:13:55;14.60;99.90
24664;DHT22;12791;50.992;13.788;2022-10-18T08:16:23;14.60;99.90
24664;DHT22;12791;50.992;13.788;2022-10-18T08:18:50;14.70;99.90
24664;DHT22;12791;50.992;13.788;2022-10-18T08:21:19;14.70;99.90
24664;DHT22;12791;50.992;13.788;2022-10-18T08:23:46;14.70;99.90
24664;DHT22;12791;50.992;13.788;2022-10-18T08:26:14;14.70;99.90
24664;DHT22;12791;50.992;13.788;2022-10-18T08:28:43;14.70;99.90
24664;DHT22;12791;50.992;13.788;2022-10-18T08:31:12;14.70;99.90
24664;DHT22;12791;50.992;13.788;2022-10-18T08:33:39;14.70;99.90
24664;DHT22;12791;50.992;13.788;2022-10-18T08:36:07;14.80;99.90
24664;DHT22;12791;50.992;13.788;2022-10-18T08:38:36;14.80;99.90
24664;DHT22;12791;50.992;13.788;2022-10-18T08:41:20;14.90;99.90
24664;DHT22;12791;50.992;13.788;2022-10-18T08:43:55;14.90;99.90
24664;DHT22;12791;50.992;13.788;2022-10-18T08:46:23;15.00;99.90
24664;DHT22;12791;50.992;13.788;2022-10-18T08:48:51;15.00;99.90
24664;DHT22;12791;50.992;13.788;2022-10-18T08:51:26;15.10;99.90
24664;DHT22;12791;50.992;13.788;2022-10-18T08:53:58;15.20;99.90
24664;DHT22;12791;50.992;13.788;2022-10-18T08:56:27;15.20;99.90
24664;DHT22;12791;50.992;13.788;2022-10-18T08:58:55;15.20;99.90
24664;DHT22;12791;50.992;13.788;2022-10-18T09:01:27;15.20;99.90
24664;DHT22;12791;50.992;13.788;2022-10-18T09:04:14;15.20;99.90
24664;DHT22;12791;50.992;13.788;2022-10-18T09:06:46;15.30;99.90
24664;DHT22;12791;50.992;13.788;2022-10-18T09:09:27;15.20;99.90
24664;DHT22;12791;50.992;13.788;2022-10-18T09:12:06;15.30;99.90
24664;DHT22;12791;50.992;13.788;2022-10-18T09:14:55;15.30;99.90
24664;DHT22;12791;50.992;13.788;2022-10-18T09:17:31;15.30;99.90
24664;DHT22;12791;50.992;13.788;2022-10-18T09:20:16;15.40;99.90
24664;DHT22;12791;50.992;13.788;2022-10-18T09:22:51;15.40;99.90
24664;DHT22;12791;50.992;13.788;2022-10-18T09:25:20;15.40;99.90
24664;DHT22;12791;50.992;13.788;2022-10-18T09:27:52;15.40;99.90
24664;DHT22;12791;50.992;13.788;2022-10-18T09:30:28;15.50;99.90
24664;DHT22;12791;50.992;13.788;2022-10-18T09:33:06;15.60;99.90
24664;DHT22;12791;50.992;13.788;2022-10-18T09:35:42;15.60;99.90
24664;DHT22;12791;50.992;13.788;2022-10-18T09:38:12;15.70;99.90
24664;DHT22;12791;50.992;13.788;2022-10-18T09:40:46;15.70;99.90
24664;DHT22;12791;50.992;13.788;2022-10-18T09:43:18;15.80;99.90
24664;DHT22;12791;50.992;13.788;2022-10-18T09:45:50;15.80;99.90
24664;DHT22;12791;50.992;13.788;2022-10-18T09:48:21;15.80;99.90
24664;DHT22;12791;50.992;13.788;2022-10-18T09:50:53;15.80;99.90
24664;DHT22;12791;50.992;13.788;2022-10-18T09:53:26;15.90;99.90
24664;DHT22;12791;50.992;13.788;2022-10-18T09:56:00;15.90;99.90
24664;DHT22;12791;50.992;13.788;2022-10-18T09:58:37;15.90;99.90
24664;DHT22;12791;50.992;13.788;2022-10-18T10:01:07;16.00;99.90
24664;DHT22;12791;50.992;13.788;2022-10-18T10:03:34;16.00;99.90
24664;DHT22;12791;50.992;13.788;2022-10-18T10:06:13;16.10;99.90
24664;DHT22;12791;50.992;13.788;2022-10-18T10:08:42;16.00;99.90
24664;DHT22;12791;50.992;13.788;2022-10-18T10:11:27;16.10;99.90
24664;DHT22;12791;50.992;13.788;2022-10-18T10:13:56;16.10;99.90
24664;DHT22;12791;50.992;13.788;2022-10-18T10:16:26;16.20;99.90
24664;DHT22;12791;50.992;13.788;2022-10-18T10:18:53;16.20;99.90
24664;DHT22;12791;50.992;13.788;2022-10-18T10:21:20;16.20;99.90
24664;DHT22;12791;50.992;13.788;2022-10-18T10:23:52;16.30;99.90
24664;DHT22;12791;50.992;13.788;2022-10-18T10:26:22;16.30;99.90
24664;DHT22;12791;50.992;13.788;2022-10-18T10:28:50;16.40;99.90
24664;DHT22;12791;50.992;13.788;2022-10-18T10:31:20;16.40;99.90
24664;DHT22;12791;50.992;13.788;2022-10-18T10:33:59;16.50;99.90
24664;DHT22;12791;50.992;13.788;2022-10-18T10:36:26;16.50;99.90
24664;DHT22;12791;50.992;13.788;2022-10-18T10:39:12;16.60;99.90
24664;DHT22;12791;50.992;13.788;2022-10-18T10:41:44;16.60;99.90
24664;DHT22;12791;50.992;13.788;2022-10-18T10:44:15;16.70;99.90
24664;DHT22;12791;50.992;13.788;2022-10-18T10:46:42;16.70;99.90
24664;DHT22;12791;50.992;13.788;2022-10-18T10:49:16;16.70;99.90
24664;DHT22;12791;50.992;13.788;2022-10-18T10:51:43;16.70;99.90
24664;DHT22;12791;50.992;13.788;2022-10-18T10:54:14;16.70;99.90
24664;DHT22;12791;50.992;13.788;2022-10-18T10:56:53;16.60;99.90
24664;DHT22;12791;50.992;13.788;2022-10-18T10:59:22;16.60;99.90
24664;DHT22;12791;50.992;13.788;2022-10-18T11:02:15;16.50;99.90
24664;DHT22;12791;50.992;13.788;2022-10-18T11:04:47;16.40;99.90
24664;DHT22;12791;50.992;13.788;2022-10-18T11:07:20;16.40;99.90
24664;DHT22;12791;50.992;13.788;2022-10-18T11:09:53;16.30;99.90
24664;DHT22;12791;50.992;13.788;2022-10-18T11:12:25;16.20;99.90
24664;DHT22;12791;50.992;13.788;2022-10-18T11:15:01;16.10;99.90
24664;DHT22;12791;50.992;13.788;2022-10-18T11:17:38;16.10;99.90
24664;DHT22;12791;50.992;13.788;2022-10-18T11:20:19;16.00;99.90
24664;DHT22;12791;50.992;13.788;2022-10-18T11:22:57;16.00;99.90
24664;DHT22;12791;50.992;13.788;2022-10-18T11:25:35;16.00;99.90
24664;DHT22;12791;50.992;13.788;2022-10-18T11:28:11;15.90;99.90
24664;DHT22;12791;50.992;13.788;2022-10-18T11:30:49;15.90;99.90
24664;DHT22;12791;50.992;13.788;2022-10-18T11:33:25;15.90;99.90
24664;DHT22;12791;50.992;13.788;2022-10-18T11:35:59;15.90;99.90
24664;DHT22;12791;50.992;13.788;2022-10-18T11:38:33;15.90;99.90
24664;DHT22;12791;50.992;13.788;2022-10-18T11:43:57;15.90;99.90
24664;DHT22;12791;50.992;13.788;2022-10-18T11:46:38;15.90;99.90
24664;DHT22;12791;50.992;13.788;2022-10-18T11:49:17;15.90;99.90
24664;DHT22;12791;50.992;13.788;2022-10-18T11:51:58;15.90;99.90
24664;DHT22;12791;50.992;13.788;2022-10-18T11:54:51;15.90;99.90
24664;DHT22;12791;50.992;13.788;2022-10-18T11:57:38;15.90;99.90
24664;DHT22;12791;50.992;13.788;2022-10-18T12:00:21;15.90;99.90
24664;DHT22;12791;50.992;13.788;2022-10-18T12:03:06;15.90;99.90
24664;DHT22;12791;50.992;13.788;2022-10-18T12:05:38;15.90;99.90
24664;DHT22;12791;50.992;13.788;2022-10-18T12:08:11;15.90;99.90
24664;DHT22;12791;50.992;13.788;2022-10-18T12:10:40;15.90;99.90
24664;DHT22;12791;50.992;13.788;2022-10-18T12:13:13;15.90;99.90
24664;DHT22;12791;50.992;13.788;2022-10-18T12:15:42;15.90;99.90
24664;DHT22;12791;50.992;13.788;2022-10-18T12:18:12;15.90;99.90
24664;DHT22;12791;50.992;13.788;2022-10-18T12:20:42;15.90;99.90
24664;DHT22;12791;50.992;13.788;2022-10-18T12:23:13;15.90;99.90
24664;DHT22;12791;50.992;13.788;2022-10-18T12:25:45;15.90;99.90
24664;DHT22;12791;50.992;13.788;2022-10-18T12:28:18;15.90;99.90
24664;DHT22;12791;50.992;13.788;2022-10-18T12:30:55;15.80;99.90
24664;DHT22;12791;50.992;13.788;2022-10-18T12:33:27;15.80;99.90
24664;DHT22;12791;50.992;13.788;2022-10-18T12:36:03;15.80;99.90
24664;DHT22;12791;50.992;13.788;2022-10-18T12:38:35;15.80;99.90
24664;DHT22;12791;50.992;13.788;2022-10-18T12:41:04;15.80;99.90
24664;DHT22;12791;50.992;13.788;2022-10-18T12:43:32;15.80;99.90
24664;DHT22;12791;50.992;13.788;2022-10-18T12:46:03;15.80;99.90
24664;DHT22;12791;50.992;13.788;2022-10-18T12:48:33;15.80;99.90
24664;DHT22;12791;50.992;13.788;2022-10-18T12:51:05;15.80;99.90
24664;DHT22;12791;50.992;13.788;2022-10-18T12:53:33;15.80;99.90
24664;DHT22;12791;50.992;13.788;2022-10-18T13:02:26;15.80;99.90
24664;DHT22;12791;50.992;13.788;2022-10-18T13:04:54;15.80;99.90
24664;DHT22;12791;50.992;13.788;2022-10-18T13:07:33;15.90;99.90
24664;DHT22;12791;50.992;13.788;2022-10-18T13:13:36;15.90;99.90
24664;DHT22;12791;50.992;13.788;2022-10-18T13:16:13;15.80;99.90
24664;DHT22;12791;50.992;13.788;2022-10-18T13:18:52;15.80;99.90
24664;DHT22;12791;50.992;13.788;2022-10-18T13:21:26;15.80;99.90
24664;DHT22;12791;50.992;13.788;2022-10-18T13:24:05;15.80;99.90
24664;DHT22;12791;50.992;13.788;2022-10-18T13:26:41;15.80;99.90
24664;DHT22;12791;50.992;13.788;2022-10-18T13:29:27;15.80;99.90
24664;DHT22;12791;50.992;13.788;2022-10-18T13:31:59;15.80;99.90
24664;DHT22;12791;50.992;13.788;2022-10-18T13:34:32;15.80;99.90
24664;DHT22;12791;50.992;13.788;2022-10-18T13:37:04;15.80;99.90
24664;DHT22;12791;50.992;13.788;2022-10-18T13:39:32;15.80;99.90
24664;DHT22;12791;50.992;13.788;2022-10-18T13:42:29;15.80;99.90
24664;DHT22;12791;50.992;13.788;2022-10-18T13:54:12;15.80;99.90
24664;DHT22;12791;50.992;13.788;2022-10-18T13:56:55;15.80;99.90
24664;DHT22;12791;50.992;13.788;2022-10-18T13:59:36;15.80;99.90
24664;DHT22;12791;50.992;13.788;2022-10-18T14:02:32;15.80;99.90
24664;DHT22;12791;50.992;13.788;2022-10-18T14:05:14;15.90;99.90
24664;DHT22;12791;50.992;13.788;2022-10-18T14:07:45;15.90;99.90
24664;DHT22;12791;50.992;13.788;2022-10-18T14:10:21;15.90;99.90
24664;DHT22;12791;50.992;13.788;2022-10-18T14:12:52;15.90;99.90
24664;DHT22;12791;50.992;13.788;2022-10-18T14:15:24;15.90;99.90
24664;DHT22;12791;50.992;13.788;2022-10-18T14:17:54;15.90;99.90
24664;DHT22;12791;50.992;13.788;2022-10-18T14:20:26;15.90;99.90
24664;DHT22;12791;50.992;13.788;2022-10-18T14:23:00;15.90;99.90
24664;DHT22;12791;50.992;13.788;2022-10-18T14:25:30;16.00;99.90
24664;DHT22;12791;50.992;13.788;2022-10-18T14:28:10;16.00;99.90
24664;DHT22;12791;50.992;13.788;2022-10-18T14:30:50;16.00;99.90
24664;DHT22;12791;50.992;13.788;2022-10-18T14:33:24;16.00;99.90
24664;DHT22;12791;50.992;13.788;2022-10-18T14:35:59;16.00;99.90
24664;DHT22;12791;50.992;13.788;2022-10-18T14:38:28;16.10;99.90
24664;DHT22;12791;50.992;13.788;2022-10-18T14:41:04;16.10;99.90
24664;DHT22;12791;50.992;13.788;2022-10-18T14:43:31;16.10;99.90
24664;DHT22;12791;50.992;13.788;2022-10-18T14:46:07;16.10;99.90
24664;DHT22;12791;50.992;13.788;2022-10-18T14:48:35;16.10;99.90
24664;DHT22;12791;50.992;13.788;2022-10-18T14:51:02;16.10;99.90
24664;DHT22;12791;50.992;13.788;2022-10-18T14:53:37;16.10;99.90
24664;DHT22;12791;50.992;13.788;2022-10-18T14:56:05;16.10;99.90
24664;DHT22;12791;50.992;13.788;2022-10-18T14:58:34;16.10;99.90
24664;DHT22;12791;50.992;13.788;2022-10-18T15:01:01;16.10;99.90
24664;DHT22;12791;50.992;13.788;2022-10-18T15:03:31;16.00;99.90
24664;DHT22;12791;50.992;13.788;2022-10-18T15:06:01;16.00;99.90
24664;DHT22;12791;50.992;13.788;2022-10-18T15:08:35;16.00;99.90
24664;DHT22;12791;50.992;13.788;2022-10-18T15:11:03;16.00;99.90
24664;DHT22;12791;50.992;13.788;2022-10-18T15:13:31;15.90;99.90
24664;DHT22;12791;50.992;13.788;2022-10-18T15:16:00;15.90;99.90
24664;DHT22;12791;50.992;13.788;2022-10-18T15:18:27;15.90;99.90
24664;DHT22;12791;50.992;13.788;2022-10-18T15:21:08;15.90;99.90
24664;DHT22;12791;50.992;13.788;2022-10-18T15:23:36;15.90;99.90
24664;DHT22;12791;50.992;13.788;2022-10-18T15:26:04;15.80;99.90
24664;DHT22;12791;50.992;13.788;2022-10-18T15:28:35;15.90;99.90
24664;DHT22;12791;50.992;13.788;2022-10-18T15:31:03;15.90;99.90
24664;DHT22;12791;50.992;13.788;2022-10-18T15:33:32;15.80;99.90
24664;DHT22;12791;50.992;13.788;2022-10-18T15:36:07;15.80;99.90
24664;DHT22;12791;50.992;13.788;2022-10-18T15:38:36;15.80;99.90
24664;DHT22;12791;50.992;13.788;2022-10-18T15:41:37;15.80;99.90
24664;DHT22;12791;50.992;13.788;2022-10-18T15:44:17;15.80;99.90
24664;DHT22;12791;50.992;13.788;2022-10-18T15:46:44;15.80;99.90
24664;DHT22;12791;50.992;13.788;2022-10-18T15:49:45;15.80;99.90
24664;DHT22;12791;50.992;13.788;2022-10-18T15:52:30;15.80;99.90
24664;DHT22;12791;50.992;13.788;2022-10-18T15:54:59;15.70;99.90
24664;DHT22;12791;50.992;13.788;2022-10-18T15:57:28;15.70;99.90
24664;DHT22;12791;50.992;13.788;2022-10-18T15:59:58;15.70;99.90
24664;DHT22;12791;50.992;13.788;2022-10-18T16:02:26;15.70;99.90
24664;DHT22;12791;50.992;13.788;2022-10-18T16:04:53;15.70;99.90
24664;DHT22;12791;50.992;13.788;2022-10-18T16:07:20;15.70;99.90
24664;DHT22;12791;50.992;13.788;2022-10-18T16:09:46;15.60;99.90
24664;DHT22;12791;50.992;13.788;2022-10-18T16:12:14;15.60;99.90
24664;DHT22;12791;50.992;13.788;2022-10-18T16:14:41;15.60;99.90
24664;DHT22;12791;50.992;13.788;2022-10-18T16:17:09;15.60;99.90
24664;DHT22;12791;50.992;13.788;2022-10-18T16:19:41;15.60;99.90
24664;DHT22;12791;50.992;13.788;2022-10-18T16:22:09;15.50;99.90
24664;DHT22;12791;50.992;13.788;2022-10-18T16:24:37;15.50;99.90
24664;DHT22;12791;50.992;13.788;2022-10-18T16:27:03;15.60;99.90
24664;DHT22;12791;50.992;13.788;2022-10-18T16:29:31;15.50;99.90
24664;DHT22;12791;50.992;13.788;2022-10-18T16:31:59;15.50;99.90
24664;DHT22;12791;50.992;13.788;2022-10-18T16:34:26;15.50;99.90
24664;DHT22;12791;50.992;13.788;2022-10-18T16:36:53;15.40;99.90
24664;DHT22;12791;50.992;13.788;2022-10-18T16:39:21;15.40;99.90
24664;DHT22;12791;50.992;13.788;2022-10-18T16:41:48;15.40;99.90
24664;DHT22;12791;50.992;13.788;2022-10-18T16:44:16;15.40;99.90
24664;DHT22;12791;50.992;13.788;2022-10-18T16:46:45;15.40;99.90
24664;DHT22;12791;50.992;13.788;2022-10-18T16:49:17;15.40;99.90
24664;DHT22;12791;50.992;13.788;2022-10-18T16:51:44;15.40;99.90
24664;DHT22;12791;50.992;13.788;2022-10-18T16:54:11;15.40;99.90
24664;DHT22;12791;50.992;13.788;2022-10-18T16:56:38;15.30;99.90
24664;DHT22;12791;50.992;13.788;2022-10-18T16:59:05;15.30;99.90
24664;DHT22;12791;50.992;13.788;2022-10-18T17:01:32;15.30;99.90
24664;DHT22;12791;50.992;13.788;2022-10-18T17:04:00;15.30;99.90
24664;DHT22;12791;50.992;13.788;2022-10-18T17:06:28;15.20;99.90
24664;DHT22;12791;50.992;13.788;2022-10-18T17:08:56;15.20;99.90
24664;DHT22;12791;50.992;13.788;2022-10-18T17:11:24;15.20;99.90
24664;DHT22;12791;50.992;13.788;2022-10-18T17:13:51;15.20;99.90
24664;DHT22;12791;50.992;13.788;2022-10-18T17:16:21;15.20;99.90
24664;DHT22;12791;50.992;13.788;2022-10-18T17:18:49;15.10;99.90
24664;DHT22;12791;50.992;13.788;2022-10-18T17:21:17;15.10;99.90
24664;DHT22;12791;50.992;13.788;2022-10-18T17:23:44;15.10;99.90
24664;DHT22;12791;50.992;13.788;2022-10-18T17:26:13;15.10;99.90
24664;DHT22;12791;50.992;13.788;2022-10-18T17:28:40;15.10;99.90
24664;DHT22;12791;50.992;13.788;2022-10-18T17:31:07;15.10;99.90
24664;DHT22;12791;50.992;13.788;2022-10-18T17:33:34;15.10;99.90
24664;DHT22;12791;50.992;13.788;2022-10-18T17:36:01;15.10;99.90
24664;DHT22;12791;50.992;13.788;2022-10-18T17:38:29;15.10;99.90
24664;DHT22;12791;50.992;13.788;2022-10-18T17:40:55;15.00;99.90
24664;DHT22;12791;50.992;13.788;2022-10-18T17:43:22;15.10;99.90
24664;DHT22;12791;50.992;13.788;2022-10-18T17:45:52;15.10;99.90
24664;DHT22;12791;50.992;13.788;2022-10-18T17:48:19;15.00;99.90
24664;DHT22;12791;50.992;13.788;2022-10-18T17:50:46;15.10;99.90
24664;DHT22;12791;50.992;13.788;2022-10-18T17:53:13;15.00;99.90
24664;DHT22;12791;50.992;13.788;2022-10-18T17:55:42;15.00;99.90
24664;DHT22;12791;50.992;13.788;2022-10-18T17:58:09;15.00;99.90
24664;DHT22;12791;50.992;13.788;2022-10-18T18:00:35;14.90;99.90
24664;DHT22;12791;50.992;13.788;2022-10-18T18:03:02;14.90;99.90
24664;DHT22;12791;50.992;13.788;2022-10-18T18:05:31;14.90;99.90
24664;DHT22;12791;50.992;13.788;2022-10-18T18:07:57;14.90;99.90
24664;DHT22;12791;50.992;13.788;2022-10-18T18:10:24;14.80;99.90
24664;DHT22;12791;50.992;13.788;2022-10-18T18:12:52;14.80;99.90
24664;DHT22;12791;50.992;13.788;2022-10-18T18:15:19;14.70;99.90
24664;DHT22;12791;50.992;13.788;2022-10-18T18:17:46;14.70;99.90
24664;DHT22;12791;50.992;13.788;2022-10-18T18:20:12;14.70;99.90
24664;DHT22;12791;50.992;13.788;2022-10-18T18:22:39;14.60;99.90
24664;DHT22;12791;50.992;13.788;2022-10-18T18:25:06;14.60;99.90
24664;DHT22;12791;50.992;13.788;2022-10-18T18:27:34;14.60;99.90
24664;DHT22;12791;50.992;13.788;2022-10-18T18:30:02;14.60;99.90
24664;DHT22;12791;50.992;13.788;2022-10-18T18:32:29;14.60;99.90
24664;DHT22;12791;50.992;13.788;2022-10-18T18:34:56;14.60;99.90
24664;DHT22;12791;50.992;13.788;2022-10-18T18:37:22;14.50;99.90
24664;DHT22;12791;50.992;13.788;2022-10-18T18:39:49;14.50;99.90
24664;DHT22;12791;50.992;13.788;2022-10-18T18:42:16;14.50;99.90
24664;DHT22;12791;50.992;13.788;2022-10-18T18:44:43;14.50;99.90
24664;DHT22;12791;50.992;13.788;2022-10-18T18:47:11;14.50;99.90
24664;DHT22;12791;50.992;13.788;2022-10-18T18:49:38;14.50;99.90
24664;DHT22;12791;50.992;13.788;2022-10-18T18:52:05;14.50;99.90
24664;DHT22;12791;50.992;13.788;2022-10-18T18:54:32;14.50;99.90
24664;DHT22;12791;50.992;13.788;2022-10-18T18:56:59;14.60;99.90